createdAt,value
2018-07-14T00:00:43.502Z,0.00
2018-07-14T00:01:43.457Z,0.00
2018-07-14T00:02:43.412Z,0.00
2018-07-14T00:03:43.370Z,0.00
2018-07-14T00:04:43.325Z,0.00
2018-07-14T00:05:43.281Z,0.00
2018-07-14T00:06:43.239Z,0.00
2018-07-14T00:07:43.193Z,0.00
2018-07-14T00:08:43.149Z,0.00
2018-07-14T00:09:43.106Z,0.00
2018-07-14T00:10:43.061Z,0.00
2018-07-14T00:11:43.017Z,0.00
2018-07-14T00:12:42.973Z,0.00
2018-07-14T00:13:42.929Z,0.00
2018-07-14T00:14:42.884Z,0.00
2018-07-14T00:15:42.841Z,0.00
2018-07-14T00:16:42.797Z,0.00
2018-07-14T00:17:42.754Z,0.00
2018-07-14T00:18:42.709Z,0.00
2018-07-14T00:19:42.665Z,0.00
2018-07-14T00:20:42.621Z,0.00
2018-07-14T00:21:42.577Z,0.00
2018-07-14T00:22:42.533Z,0.00
2018-07-14T00:23:42.492Z,0.00
2018-07-14T00:24:42.448Z,0.00
2018-07-14T00:25:42.402Z,0.00
2018-07-14T00:26:42.357Z,0.00
2018-07-14T00:27:42.314Z,0.00
2018-07-14T00:28:42.270Z,0.00
2018-07-14T00:29:42.226Z,0.00
2018-07-14T00:30:42.181Z,0.00
2018-07-14T00:31:42.140Z,0.00
2018-07-14T00:32:42.094Z,0.00
2018-07-14T00:33:42.050Z,0.00
2018-07-14T00:34:42.005Z,0.00
2018-07-14T00:35:41.963Z,0.00
2018-07-14T00:36:41.917Z,0.00
2018-07-14T00:37:41.874Z,0.00
2018-07-14T00:38:41.831Z,0.00
2018-07-14T00:39:41.794Z,0.00
2018-07-14T00:40:41.742Z,0.00
2018-07-14T00:41:41.698Z,0.00
2018-07-14T00:42:41.654Z,0.00
2018-07-14T00:43:41.609Z,0.00
2018-07-14T00:44:41.566Z,0.00
2018-07-14T00:45:41.522Z,0.00
2018-07-14T00:46:41.477Z,0.00
2018-07-14T00:47:41.439Z,0.00
2018-07-14T00:48:41.391Z,0.00
2018-07-14T00:49:41.346Z,0.00
2018-07-14T00:50:41.304Z,0.00
2018-07-14T00:51:41.257Z,0.00
2018-07-14T00:52:41.225Z,0.00
2018-07-14T00:53:41.171Z,0.00
2018-07-14T00:54:41.126Z,0.00
2018-07-14T00:55:41.082Z,0.00
2018-07-14T00:56:41.038Z,0.00
2018-07-14T00:57:40.996Z,0.00
2018-07-14T00:58:40.949Z,0.00
2018-07-14T00:59:40.906Z,0.00
2018-07-14T01:00:40.862Z,0.00
2018-07-14T01:01:40.819Z,0.00
2018-07-14T01:02:40.774Z,0.00
2018-07-14T01:03:40.729Z,0.00
2018-07-14T01:04:40.689Z,0.00
2018-07-14T01:05:40.642Z,0.00
2018-07-14T01:06:40.597Z,0.00
2018-07-14T01:07:40.606Z,0.00
2018-07-14T01:08:40.510Z,0.00
2018-07-14T01:09:40.466Z,0.00
2018-07-14T01:10:40.421Z,0.00
2018-07-14T01:11:40.380Z,0.00
2018-07-14T01:12:40.336Z,0.00
2018-07-14T01:13:40.290Z,0.00
2018-07-14T01:14:40.246Z,0.00
2018-07-14T01:15:40.202Z,0.00
2018-07-14T01:16:40.159Z,0.00
2018-07-14T01:17:40.139Z,0.00
2018-07-14T01:18:40.069Z,0.00
2018-07-14T01:19:40.026Z,0.00
2018-07-14T01:20:39.984Z,0.00
2018-07-14T01:21:39.940Z,0.00
2018-07-14T01:22:39.893Z,0.00
2018-07-14T01:23:39.849Z,0.00
2018-07-14T01:25:39.761Z,0.00
2018-07-14T01:26:39.716Z,0.00
2018-07-14T01:27:39.673Z,0.00
2018-07-14T01:28:39.629Z,0.00
2018-07-14T01:29:39.635Z,0.00
2018-07-14T01:30:39.540Z,0.00
2018-07-14T01:31:39.497Z,0.00
2018-07-14T01:32:39.452Z,0.00
2018-07-14T01:33:39.408Z,0.00
2018-07-14T01:34:39.364Z,0.00
2018-07-14T01:35:39.320Z,0.00
2018-07-14T01:36:39.276Z,0.00
2018-07-14T01:37:39.232Z,0.00
2018-07-14T01:38:39.188Z,0.00
2018-07-14T01:39:39.143Z,0.00
2018-07-14T01:40:39.192Z,0.00
2018-07-14T01:41:39.056Z,0.00
2018-07-14T01:42:39.012Z,0.00
2018-07-14T01:43:38.967Z,0.00
2018-07-14T01:44:38.924Z,0.00
2018-07-14T01:45:38.879Z,0.00
2018-07-14T01:46:38.835Z,0.00
2018-07-14T01:47:38.791Z,0.00
2018-07-14T01:48:38.747Z,0.00
2018-07-14T01:49:38.703Z,0.00
2018-07-14T01:50:38.658Z,0.00
2018-07-14T01:51:38.614Z,0.00
2018-07-14T01:52:38.621Z,0.00
2018-07-14T01:53:38.577Z,0.00
2018-07-14T01:54:38.482Z,0.00
2018-07-14T01:55:38.441Z,0.00
2018-07-14T01:56:38.394Z,0.00
2018-07-14T01:57:38.354Z,0.00
2018-07-14T01:58:38.306Z,0.00
2018-07-14T01:59:38.262Z,0.00
2018-07-14T02:00:38.218Z,0.00
2018-07-14T02:01:38.174Z,0.00
2018-07-14T02:02:38.129Z,0.00
2018-07-14T02:03:38.085Z,0.00
2018-07-14T02:04:38.042Z,0.00
2018-07-14T02:05:37.998Z,0.00
2018-07-14T02:06:37.953Z,0.00
2018-07-14T02:07:37.909Z,0.00
2018-07-14T02:08:37.865Z,0.00
2018-07-14T02:09:37.824Z,0.00
2018-07-14T02:10:37.776Z,0.00
2018-07-14T02:11:37.733Z,0.00
2018-07-14T02:12:37.689Z,0.00
2018-07-14T02:13:37.645Z,0.00
2018-07-14T02:14:37.600Z,0.00
2018-07-14T02:15:37.556Z,0.00
2018-07-14T02:16:37.512Z,0.00
2018-07-14T02:17:37.468Z,0.00
2018-07-14T02:18:37.423Z,0.00
2018-07-14T02:19:37.379Z,0.00
2018-07-14T02:20:37.336Z,0.00
2018-07-14T02:21:37.292Z,0.00
2018-07-14T02:22:37.247Z,0.00
2018-07-14T02:23:37.203Z,0.00
2018-07-14T02:24:37.159Z,0.00
2018-07-14T02:25:37.115Z,0.00
2018-07-14T02:26:37.070Z,0.00
2018-07-14T02:27:37.026Z,0.00
2018-07-14T02:28:36.982Z,0.00
2018-07-14T02:29:36.938Z,0.00
2018-07-14T02:30:36.894Z,0.00
2018-07-14T02:31:36.850Z,0.00
2018-07-14T02:32:36.806Z,0.00
2018-07-14T02:33:36.764Z,0.00
2018-07-14T02:34:36.719Z,0.00
2018-07-14T02:36:36.635Z,0.00
2018-07-14T02:38:36.541Z,0.00
2018-07-14T02:40:36.453Z,0.00
2018-07-14T02:41:36.411Z,0.00
2018-07-14T02:42:36.363Z,0.00
2018-07-14T02:43:36.319Z,0.00
2018-07-14T02:44:36.276Z,0.00
2018-07-14T02:45:36.232Z,0.00
2018-07-14T02:46:36.187Z,0.00
2018-07-14T02:47:36.143Z,0.00
2018-07-14T02:48:36.099Z,0.00
2018-07-14T02:49:36.057Z,0.00
2018-07-14T02:50:36.012Z,0.00
2018-07-14T02:51:35.966Z,0.00
2018-07-14T02:52:35.921Z,0.00
2018-07-14T02:53:35.878Z,0.00
2018-07-14T02:54:35.833Z,0.00
2018-07-14T02:55:35.789Z,0.00
2018-07-14T02:56:35.745Z,0.00
2018-07-14T02:57:35.701Z,0.00
2018-07-14T02:58:35.656Z,0.00
2018-07-14T02:59:35.618Z,0.00
2018-07-14T03:00:35.569Z,0.00
2018-07-14T03:01:35.524Z,0.00
2018-07-14T03:02:35.481Z,0.00
2018-07-14T03:03:35.449Z,0.00
2018-07-14T03:04:35.391Z,0.00
2018-07-14T03:05:35.348Z,0.00
2018-07-14T03:06:35.302Z,0.00
2018-07-14T03:07:35.261Z,0.00
2018-07-14T03:08:35.214Z,0.00
2018-07-14T03:09:35.173Z,0.00
2018-07-14T03:10:35.125Z,0.00
2018-07-14T03:11:35.081Z,0.00
2018-07-14T03:12:35.037Z,0.00
2018-07-14T03:13:34.993Z,0.00
2018-07-14T03:14:34.948Z,0.00
2018-07-14T03:15:34.904Z,0.00
2018-07-14T03:16:34.862Z,0.00
2018-07-14T03:17:34.819Z,0.00
2018-07-14T03:18:34.771Z,0.00
2018-07-14T03:19:34.863Z,0.00
2018-07-14T03:20:34.683Z,0.00
2018-07-14T03:21:34.639Z,0.00
2018-07-14T03:22:34.593Z,0.00
2018-07-14T03:23:34.550Z,0.00
2018-07-14T03:24:34.506Z,0.00
2018-07-14T03:25:34.461Z,0.00
2018-07-14T03:26:34.416Z,0.00
2018-07-14T03:27:34.372Z,0.00
2018-07-14T03:28:34.327Z,0.00
2018-07-14T03:29:34.286Z,0.00
2018-07-14T03:30:34.239Z,0.00
2018-07-14T03:31:34.196Z,0.00
2018-07-14T03:32:34.151Z,0.00
2018-07-14T03:33:34.114Z,0.00
2018-07-14T03:34:34.062Z,0.00
2018-07-14T03:35:34.018Z,0.00
2018-07-14T03:36:33.982Z,0.00
2018-07-14T03:37:33.930Z,0.00
2018-07-14T03:38:33.884Z,0.00
2018-07-14T03:39:33.842Z,0.00
2018-07-14T03:40:33.796Z,0.00
2018-07-14T03:41:33.752Z,0.00
2018-07-14T03:42:33.707Z,0.00
2018-07-14T03:43:33.663Z,0.00
2018-07-14T03:44:33.620Z,0.00
2018-07-14T03:45:33.575Z,0.00
2018-07-14T03:46:33.531Z,0.00
2018-07-14T03:47:33.536Z,0.00
2018-07-14T03:48:33.441Z,0.00
2018-07-14T03:49:33.397Z,0.00
2018-07-14T03:50:33.352Z,0.00
2018-07-14T03:51:33.308Z,0.00
2018-07-14T03:52:33.264Z,0.00
2018-07-14T03:53:33.220Z,0.00
2018-07-14T03:54:33.175Z,0.00
2018-07-14T03:55:33.131Z,0.00
2018-07-14T03:56:33.087Z,0.00
2018-07-14T03:57:33.043Z,0.00
2018-07-14T03:58:32.997Z,0.00
2018-07-14T03:59:32.954Z,0.00
2018-07-14T04:00:32.909Z,0.00
2018-07-14T04:01:32.865Z,0.00
2018-07-14T04:02:32.819Z,0.00
2018-07-14T04:03:32.776Z,0.00
2018-07-14T04:05:32.688Z,5.63
2018-07-14T04:07:32.598Z,5.63
2018-07-14T04:08:32.555Z,5.63
2018-07-14T04:09:32.510Z,5.63
2018-07-14T04:10:32.468Z,5.63
2018-07-14T04:11:32.421Z,5.63
2018-07-14T04:12:32.377Z,5.63
2018-07-14T04:13:32.333Z,5.63
2018-07-14T04:14:32.292Z,5.63
2018-07-14T04:15:32.243Z,5.63
2018-07-14T04:16:32.200Z,5.63
2018-07-14T04:17:32.156Z,5.63
2018-07-14T04:18:32.110Z,5.63
2018-07-14T04:19:32.066Z,5.63
2018-07-14T04:20:32.028Z,5.63
2018-07-14T04:21:31.977Z,5.63
2018-07-14T04:22:31.935Z,5.63
2018-07-14T04:23:31.888Z,5.63
2018-07-14T04:24:31.844Z,5.63
2018-07-14T04:25:31.800Z,5.63
2018-07-14T04:26:31.755Z,5.63
2018-07-14T04:27:31.711Z,5.63
2018-07-14T04:28:31.667Z,5.63
2018-07-14T04:29:31.622Z,5.63
2018-07-14T04:30:31.577Z,5.63
2018-07-14T04:31:31.533Z,5.63
2018-07-14T04:32:31.489Z,5.63
2018-07-14T04:33:31.445Z,5.63
2018-07-14T04:34:31.401Z,5.63
2018-07-14T04:35:31.356Z,5.63
2018-07-14T04:36:31.319Z,5.63
2018-07-14T04:37:31.267Z,5.63
2018-07-14T04:38:31.222Z,5.63
2018-07-14T04:39:31.178Z,5.63
2018-07-14T04:40:31.134Z,5.63
2018-07-14T04:41:31.090Z,5.63
2018-07-14T04:42:31.053Z,11.25
2018-07-14T04:43:31.004Z,11.25
2018-07-14T04:44:30.957Z,11.25
2018-07-14T04:45:30.912Z,11.25
2018-07-14T04:46:30.963Z,11.25
2018-07-14T04:47:30.827Z,11.25
2018-07-14T04:48:30.779Z,11.25
2018-07-14T04:49:30.734Z,11.25
2018-07-14T04:50:30.689Z,11.25
2018-07-14T04:51:30.645Z,11.25
2018-07-14T04:52:30.601Z,16.88
2018-07-14T04:55:30.467Z,22.50
2018-07-14T04:56:30.423Z,22.50
2018-07-14T04:57:30.380Z,16.88
2018-07-14T04:58:30.334Z,22.50
2018-07-14T04:59:30.299Z,22.50
2018-07-14T05:00:30.247Z,28.13
2018-07-14T05:01:30.202Z,22.50
2018-07-14T05:02:30.160Z,22.50
2018-07-14T05:03:30.112Z,22.50
2018-07-14T05:04:30.068Z,22.50
2018-07-14T05:05:30.024Z,22.50
2018-07-14T05:06:30.036Z,22.50
2018-07-14T05:07:29.935Z,33.75
2018-07-14T05:08:29.890Z,28.13
2018-07-14T05:09:29.847Z,28.13
2018-07-14T05:10:29.801Z,22.50
2018-07-14T05:11:29.757Z,22.50
2018-07-14T05:12:29.713Z,28.13
2018-07-14T05:13:29.669Z,28.13
2018-07-14T05:14:29.626Z,22.50
2018-07-14T05:15:29.580Z,28.13
2018-07-14T05:16:29.537Z,33.75
2018-07-14T05:17:29.492Z,28.13
2018-07-14T05:18:29.449Z,22.50
2018-07-14T05:19:29.402Z,28.13
2018-07-14T05:20:29.359Z,28.13
2018-07-14T05:21:29.417Z,28.13
2018-07-14T05:22:29.269Z,28.13
2018-07-14T05:23:29.226Z,28.13
2018-07-14T05:24:29.181Z,28.13
2018-07-14T05:25:29.138Z,28.13
2018-07-14T05:26:29.093Z,28.13
2018-07-14T05:27:29.048Z,28.13
2018-07-14T05:28:29.072Z,28.13
2018-07-14T05:29:28.968Z,28.13
2018-07-14T05:30:28.915Z,28.13
2018-07-14T05:31:28.871Z,28.13
2018-07-14T05:32:28.829Z,28.13
2018-07-14T05:33:28.783Z,28.13
2018-07-14T05:34:28.738Z,28.13
2018-07-14T05:35:28.694Z,28.13
2018-07-14T05:36:28.649Z,28.13
2018-07-14T05:37:28.606Z,33.75
2018-07-14T05:38:28.561Z,33.75
2018-07-14T05:39:28.523Z,33.75
2018-07-14T05:40:28.475Z,33.75
2018-07-14T05:41:28.428Z,39.38
2018-07-14T05:42:28.383Z,56.25
2018-07-14T05:43:28.340Z,39.38
2018-07-14T05:44:28.295Z,39.38
2018-07-14T05:45:28.251Z,39.38
2018-07-14T05:46:28.206Z,39.38
2018-07-14T05:47:28.163Z,39.38
2018-07-14T05:48:28.119Z,39.38
2018-07-14T05:49:28.075Z,39.38
2018-07-14T05:51:27.986Z,39.38
2018-07-14T05:52:27.943Z,39.38
2018-07-14T05:53:27.897Z,39.38
2018-07-14T05:54:27.852Z,33.75
2018-07-14T05:55:27.809Z,33.75
2018-07-14T05:56:27.764Z,39.38
2018-07-14T05:57:27.721Z,45.00
2018-07-14T05:58:27.676Z,39.38
2018-07-14T05:59:27.631Z,39.38
2018-07-14T06:00:27.588Z,45.00
2018-07-14T06:01:27.544Z,39.38
2018-07-14T06:02:27.499Z,39.38
2018-07-14T06:03:27.454Z,39.38
2018-07-14T06:04:27.412Z,39.38
2018-07-14T06:05:27.367Z,45.00
2018-07-14T06:06:27.322Z,39.38
2018-07-14T06:07:27.278Z,39.38
2018-07-14T06:08:27.234Z,39.38
2018-07-14T06:09:27.190Z,39.38
2018-07-14T06:10:27.145Z,39.38
2018-07-14T06:11:27.101Z,39.38
2018-07-14T06:12:27.057Z,39.38
2018-07-14T06:13:27.014Z,39.38
2018-07-14T06:14:26.974Z,39.38
2018-07-14T06:15:26.925Z,45.00
2018-07-14T06:16:26.881Z,39.38
2018-07-14T06:17:26.837Z,39.38
2018-07-14T06:18:26.792Z,50.63
2018-07-14T06:19:26.796Z,56.25
2018-07-14T06:20:26.704Z,61.88
2018-07-14T06:21:26.660Z,61.88
2018-07-14T06:22:26.616Z,61.88
2018-07-14T06:23:26.572Z,56.25
2018-07-14T06:24:26.528Z,67.50
2018-07-14T06:25:26.484Z,56.25
2018-07-14T06:26:26.439Z,61.88
2018-07-14T06:27:26.397Z,73.13
2018-07-14T06:28:26.352Z,67.50
2018-07-14T06:29:26.308Z,67.50
2018-07-14T06:30:26.263Z,61.88
2018-07-14T06:31:26.219Z,61.88
2018-07-14T06:32:26.176Z,84.38
2018-07-14T06:33:26.132Z,61.88
2018-07-14T06:34:26.088Z,67.50
2018-07-14T06:35:26.044Z,73.13
2018-07-14T06:36:26.000Z,78.75
2018-07-14T06:37:25.958Z,67.50
2018-07-14T06:38:26.070Z,90.00
2018-07-14T06:39:25.867Z,73.13
2018-07-14T06:40:25.824Z,73.13
2018-07-14T06:41:25.782Z,95.63
2018-07-14T06:42:25.736Z,67.50
2018-07-14T06:43:25.692Z,67.50
2018-07-14T06:44:25.648Z,84.38
2018-07-14T06:45:25.604Z,73.13
2018-07-14T06:46:25.560Z,106.88
2018-07-14T06:47:25.517Z,101.25
2018-07-14T06:48:25.472Z,95.63
2018-07-14T06:49:25.431Z,101.25
2018-07-14T06:50:25.384Z,101.25
2018-07-14T06:51:25.340Z,101.25
2018-07-14T06:52:25.299Z,95.63
2018-07-14T06:53:25.254Z,101.25
2018-07-14T06:54:25.211Z,101.25
2018-07-14T06:55:25.166Z,101.25
2018-07-14T06:56:25.123Z,106.88
2018-07-14T06:57:25.079Z,101.25
2018-07-14T06:59:24.992Z,101.25
2018-07-14T07:00:24.949Z,106.88
2018-07-14T07:01:24.905Z,101.25
2018-07-14T07:02:24.864Z,106.88
2018-07-14T07:03:24.827Z,106.88
2018-07-14T07:04:24.779Z,101.25
2018-07-14T07:05:24.734Z,106.88
2018-07-14T07:06:24.687Z,106.88
2018-07-14T07:07:24.643Z,106.88
2018-07-14T07:08:24.601Z,106.88
2018-07-14T07:09:24.558Z,106.88
2018-07-14T07:10:24.514Z,106.88
2018-07-14T07:11:24.470Z,106.88
2018-07-14T07:12:24.427Z,106.88
2018-07-14T07:13:24.385Z,106.88
2018-07-14T07:14:24.342Z,106.88
2018-07-14T07:15:24.299Z,106.88
2018-07-14T07:16:24.255Z,112.50
2018-07-14T07:17:24.212Z,118.13
2018-07-14T07:18:24.168Z,112.50
2018-07-14T07:19:24.125Z,106.88
2018-07-14T07:20:24.082Z,112.50
2018-07-14T07:21:24.053Z,112.50
2018-07-14T07:22:23.995Z,112.50
2018-07-14T07:23:23.953Z,112.50
2018-07-14T07:24:23.912Z,84.38
2018-07-14T07:25:23.868Z,112.50
2018-07-14T07:26:23.824Z,118.13
2018-07-14T07:27:23.781Z,118.13
2018-07-14T07:28:23.738Z,78.75
2018-07-14T07:29:23.697Z,118.13
2018-07-14T07:30:23.658Z,112.50
2018-07-14T07:31:23.609Z,118.13
2018-07-14T07:32:23.566Z,118.13
2018-07-14T07:33:23.523Z,118.13
2018-07-14T07:34:23.490Z,118.13
2018-07-14T07:35:23.438Z,118.13
2018-07-14T07:36:23.395Z,118.13
2018-07-14T07:37:23.352Z,118.13
2018-07-14T07:38:23.309Z,123.75
2018-07-14T07:39:23.267Z,123.75
2018-07-14T07:40:23.224Z,123.75
2018-07-14T07:41:23.181Z,123.75
2018-07-14T07:43:23.180Z,129.38
2018-07-14T07:44:23.054Z,129.38
2018-07-14T07:45:23.011Z,129.38
2018-07-14T07:46:22.968Z,129.38
2018-07-14T07:47:22.926Z,140.63
2018-07-14T07:48:22.898Z,135.00
2018-07-14T07:49:22.840Z,135.00
2018-07-14T07:50:22.798Z,95.63
2018-07-14T07:51:22.758Z,129.38
2018-07-14T07:52:22.713Z,140.63
2018-07-14T07:53:22.671Z,135.00
2018-07-14T07:54:22.632Z,135.00
2018-07-14T07:55:22.585Z,123.75
2018-07-14T07:56:22.543Z,135.00
2018-07-14T07:57:22.502Z,135.00
2018-07-14T07:58:22.458Z,135.00
2018-07-14T07:59:22.416Z,135.00
2018-07-14T08:00:22.374Z,135.00
2018-07-14T08:01:22.333Z,135.00
2018-07-14T08:02:22.289Z,135.00
2018-07-14T08:03:22.250Z,135.00
2018-07-14T08:04:22.205Z,140.63
2018-07-14T08:05:22.165Z,135.00
2018-07-14T08:06:22.121Z,140.63
2018-07-14T08:07:22.079Z,140.63
2018-07-14T08:08:22.037Z,140.63
2018-07-14T08:09:22.004Z,140.63
2018-07-14T08:10:21.952Z,140.63
2018-07-14T08:11:21.911Z,140.63
2018-07-14T08:12:21.869Z,140.63
2018-07-14T08:13:21.827Z,140.63
2018-07-14T08:14:21.785Z,140.63
2018-07-14T08:15:21.745Z,146.25
2018-07-14T08:16:21.702Z,140.63
2018-07-14T08:17:21.664Z,140.63
2018-07-14T08:18:21.618Z,140.63
2018-07-14T08:19:21.577Z,146.25
2018-07-14T08:20:21.535Z,146.25
2018-07-14T08:21:21.494Z,146.25
2018-07-14T08:22:21.452Z,151.88
2018-07-14T08:23:21.420Z,151.88
2018-07-14T08:24:21.372Z,151.88
2018-07-14T08:25:21.332Z,151.88
2018-07-14T08:26:21.286Z,157.50
2018-07-14T08:27:21.245Z,151.88
2018-07-14T08:28:21.207Z,151.88
2018-07-14T08:29:21.163Z,151.88
2018-07-14T08:30:21.121Z,157.50
2018-07-14T08:31:21.080Z,157.50
2018-07-14T08:32:21.046Z,163.13
2018-07-14T08:33:20.998Z,163.13
2018-07-14T08:34:20.957Z,163.13
2018-07-14T08:35:20.916Z,157.50
2018-07-14T08:36:20.875Z,163.13
2018-07-14T08:37:20.835Z,163.13
2018-07-14T08:38:20.793Z,168.75
2018-07-14T08:39:20.752Z,174.38
2018-07-14T08:40:20.711Z,174.38
2018-07-14T08:41:20.672Z,174.38
2018-07-14T08:42:20.629Z,185.63
2018-07-14T08:44:20.549Z,247.50
2018-07-14T08:45:20.512Z,489.38
2018-07-14T08:46:20.469Z,691.88
2018-07-14T08:47:20.427Z,753.75
2018-07-14T08:48:20.387Z,765.00
2018-07-14T08:49:20.349Z,742.50
2018-07-14T08:50:20.311Z,748.13
2018-07-14T08:51:20.290Z,731.25
2018-07-14T08:52:20.225Z,765.00
2018-07-14T08:53:20.184Z,753.75
2018-07-14T08:54:20.144Z,753.75
2018-07-14T08:55:20.103Z,810.00
2018-07-14T08:56:20.064Z,866.25
2018-07-14T08:57:20.024Z,883.13
2018-07-14T08:58:20.029Z,877.50
2018-07-14T08:59:19.944Z,871.88
2018-07-14T09:00:19.904Z,877.50
2018-07-14T09:01:19.864Z,928.13
2018-07-14T09:02:19.823Z,838.13
2018-07-14T09:03:19.784Z,798.75
2018-07-14T09:04:19.744Z,821.25
2018-07-14T09:05:19.704Z,832.50
2018-07-14T09:07:19.628Z,860.63
2018-07-14T09:08:19.584Z,832.50
2018-07-14T09:09:19.545Z,798.75
2018-07-14T09:10:19.504Z,776.25
2018-07-14T09:11:19.465Z,765.00
2018-07-14T09:12:19.425Z,708.75
2018-07-14T09:13:19.386Z,686.25
2018-07-14T09:14:19.346Z,680.63
2018-07-14T09:15:19.306Z,686.25
2018-07-14T09:16:19.272Z,804.38
2018-07-14T09:17:19.228Z,1046.25
2018-07-14T09:18:19.188Z,995.63
2018-07-14T09:19:19.148Z,871.88
2018-07-14T09:20:19.109Z,939.38
2018-07-14T09:21:19.074Z,742.50
2018-07-14T09:22:19.029Z,579.38
2018-07-14T09:23:18.991Z,506.25
2018-07-14T09:24:18.954Z,551.25
2018-07-14T09:25:18.962Z,641.25
2018-07-14T09:26:18.873Z,742.50
2018-07-14T09:27:18.834Z,601.88
2018-07-14T09:28:18.798Z,455.63
2018-07-14T09:29:18.754Z,450.00
2018-07-14T09:30:18.724Z,416.25
2018-07-14T09:31:18.675Z,343.13
2018-07-14T09:32:18.638Z,286.88
2018-07-14T09:33:18.598Z,286.88
2018-07-14T09:34:18.557Z,281.25
2018-07-14T09:35:18.518Z,258.75
2018-07-14T09:36:18.508Z,247.50
2018-07-14T09:37:18.439Z,258.75
2018-07-14T09:38:18.399Z,286.88
2018-07-14T09:39:18.360Z,360.00
2018-07-14T09:40:18.321Z,382.50
2018-07-14T09:41:18.282Z,500.63
2018-07-14T09:42:18.241Z,624.38
2018-07-14T09:43:18.202Z,568.13
2018-07-14T09:44:18.165Z,438.75
2018-07-14T09:45:18.124Z,326.25
2018-07-14T09:46:18.084Z,270.00
2018-07-14T09:47:18.044Z,241.88
2018-07-14T09:48:18.011Z,236.25
2018-07-14T09:49:17.971Z,258.75
2018-07-14T09:50:17.924Z,230.63
2018-07-14T09:51:17.893Z,202.50
2018-07-14T09:52:17.845Z,135.00
2018-07-14T09:53:17.806Z,56.25
2018-07-14T09:54:17.765Z,50.63
2018-07-14T09:55:17.744Z,50.63
2018-07-14T09:56:17.686Z,45.00
2018-07-14T09:57:17.647Z,45.00
2018-07-14T09:58:17.608Z,45.00
2018-07-14T09:59:17.565Z,45.00
2018-07-14T10:00:17.524Z,45.00
2018-07-14T10:01:17.485Z,45.00
2018-07-14T10:02:17.443Z,45.00
2018-07-14T10:03:17.443Z,45.00
2018-07-14T10:04:17.362Z,45.00
2018-07-14T10:05:17.322Z,45.00
2018-07-14T10:06:17.433Z,45.00
2018-07-14T10:07:17.245Z,45.00
2018-07-14T10:08:17.198Z,45.00
2018-07-14T10:09:17.158Z,45.00
2018-07-14T10:10:17.116Z,45.00
2018-07-14T10:11:17.076Z,45.00
2018-07-14T10:12:17.034Z,39.38
2018-07-14T10:13:17.137Z,39.38
2018-07-14T10:14:16.951Z,39.38
2018-07-14T10:15:16.911Z,39.38
2018-07-14T10:16:16.870Z,39.38
2018-07-14T10:17:16.907Z,39.38
2018-07-14T10:18:16.786Z,39.38
2018-07-14T10:19:16.746Z,39.38
2018-07-14T10:20:16.705Z,39.38
2018-07-14T10:21:16.667Z,39.38
2018-07-14T10:22:16.696Z,39.38
2018-07-14T10:23:16.580Z,39.38
2018-07-14T10:24:16.539Z,39.38
2018-07-14T10:25:16.704Z,39.38
2018-07-14T10:26:16.456Z,39.38
2018-07-14T10:27:16.414Z,39.38
2018-07-14T10:28:16.374Z,39.38
2018-07-14T10:29:16.332Z,39.38
2018-07-14T10:30:16.289Z,33.75
2018-07-14T10:31:16.248Z,33.75
2018-07-14T10:32:16.207Z,33.75
2018-07-14T10:33:16.166Z,33.75
2018-07-14T10:34:16.125Z,33.75
2018-07-14T10:35:16.082Z,33.75
2018-07-14T10:36:16.042Z,33.75
2018-07-14T10:37:15.999Z,33.75
2018-07-14T10:38:15.957Z,33.75
2018-07-14T10:39:15.916Z,33.75
2018-07-14T10:41:15.832Z,33.75
2018-07-14T10:42:15.892Z,33.75
2018-07-14T10:43:15.749Z,33.75
2018-07-14T10:44:15.708Z,33.75
2018-07-14T10:45:15.666Z,33.75
2018-07-14T10:46:15.624Z,33.75
2018-07-14T10:47:15.582Z,33.75
2018-07-14T10:48:15.541Z,33.75
2018-07-14T10:49:15.499Z,33.75
2018-07-14T10:50:15.457Z,33.75
2018-07-14T10:51:15.415Z,33.75
2018-07-14T10:52:15.374Z,33.75
2018-07-14T10:53:15.332Z,33.75
2018-07-14T10:54:15.289Z,33.75
2018-07-14T10:55:15.264Z,33.75
2018-07-14T10:56:15.210Z,33.75
2018-07-14T10:57:15.165Z,33.75
2018-07-14T10:58:15.170Z,28.13
2018-07-14T10:59:15.131Z,28.13
2018-07-14T11:00:15.042Z,28.13
2018-07-14T11:01:15.001Z,28.13
2018-07-14T11:02:14.956Z,28.13
2018-07-14T11:03:14.914Z,28.13
2018-07-14T11:04:14.872Z,28.13
2018-07-14T11:06:14.788Z,28.13
2018-07-14T11:07:14.747Z,28.13
2018-07-14T11:08:14.705Z,28.13
2018-07-14T11:09:14.668Z,28.13
2018-07-14T11:10:14.621Z,28.13
2018-07-14T11:11:14.579Z,28.13
2018-07-14T11:12:14.619Z,28.13
2018-07-14T11:13:14.496Z,28.13
2018-07-14T11:14:14.454Z,28.13
2018-07-14T11:15:14.412Z,28.13
2018-07-14T11:16:14.371Z,28.13
2018-07-14T11:17:14.330Z,28.13
2018-07-14T11:18:14.286Z,28.13
2018-07-14T11:19:14.244Z,28.13
2018-07-14T11:20:14.203Z,28.13
2018-07-14T11:21:14.161Z,28.13
2018-07-14T11:22:14.119Z,28.13
2018-07-14T11:23:14.077Z,28.13
2018-07-14T11:24:14.039Z,28.13
2018-07-14T11:25:13.993Z,28.13
2018-07-14T11:26:13.951Z,28.13
2018-07-14T11:27:13.910Z,22.50
2018-07-14T11:28:13.867Z,22.50
2018-07-14T11:29:13.825Z,22.50
2018-07-14T11:30:13.810Z,22.50
2018-07-14T11:31:13.741Z,22.50
2018-07-14T11:32:13.700Z,22.50
2018-07-14T11:33:13.658Z,22.50
2018-07-14T11:34:13.615Z,22.50
2018-07-14T11:35:13.578Z,22.50
2018-07-14T11:36:13.532Z,22.50
2018-07-14T11:37:13.490Z,22.50
2018-07-14T11:38:13.547Z,22.50
2018-07-14T11:39:13.405Z,22.50
2018-07-14T11:40:13.366Z,22.50
2018-07-14T11:41:13.322Z,22.50
2018-07-14T11:42:13.350Z,22.50
2018-07-14T11:43:13.238Z,22.50
2018-07-14T11:44:13.196Z,22.50
2018-07-14T11:45:13.154Z,22.50
2018-07-14T11:46:13.161Z,22.50
2018-07-14T11:47:13.070Z,22.50
2018-07-14T11:48:13.091Z,22.50
2018-07-14T11:49:12.986Z,22.50
2018-07-14T11:50:12.944Z,22.50
2018-07-14T11:51:12.901Z,22.50
2018-07-14T11:52:12.860Z,22.50
2018-07-14T11:53:12.819Z,22.50
2018-07-14T11:54:12.817Z,22.50
2018-07-14T11:55:12.733Z,22.50
2018-07-14T11:56:12.692Z,22.50
2018-07-14T11:57:12.650Z,22.50
2018-07-14T11:58:12.609Z,22.50
2018-07-14T11:59:12.565Z,22.50
2018-07-14T12:00:12.523Z,22.50
2018-07-14T12:01:12.497Z,22.50
2018-07-14T12:02:12.439Z,22.50
2018-07-14T12:03:12.397Z,22.50
2018-07-14T12:04:12.355Z,22.50
2018-07-14T12:05:12.313Z,16.88
2018-07-14T12:06:12.271Z,16.88
2018-07-14T12:07:12.254Z,16.88
2018-07-14T12:08:12.187Z,16.88
2018-07-14T12:09:12.145Z,16.88
2018-07-14T12:10:12.105Z,16.88
2018-07-14T12:11:12.062Z,16.88
2018-07-14T12:12:12.019Z,16.88
2018-07-14T12:13:11.977Z,16.88
2018-07-14T12:14:11.936Z,16.88
2018-07-14T12:15:11.893Z,16.88
2018-07-14T12:16:11.851Z,16.88
2018-07-14T12:17:11.809Z,16.88
2018-07-14T12:18:11.767Z,16.88
2018-07-14T12:19:11.724Z,16.88
2018-07-14T12:20:11.683Z,16.88
2018-07-14T12:21:11.641Z,16.88
2018-07-14T12:22:11.634Z,16.88
2018-07-14T12:23:11.555Z,16.88
2018-07-14T12:24:11.514Z,16.88
2018-07-14T12:25:11.472Z,16.88
2018-07-14T12:26:11.430Z,16.88
2018-07-14T12:29:11.327Z,16.88
2018-07-14T12:30:11.274Z,16.88
2018-07-14T12:31:11.219Z,16.88
2018-07-14T12:32:11.177Z,16.88
2018-07-14T12:33:11.135Z,16.88
2018-07-14T12:34:11.092Z,16.88
2018-07-14T12:35:11.051Z,16.88
2018-07-14T12:36:11.009Z,16.88
2018-07-14T12:37:10.969Z,16.88
2018-07-14T12:38:10.924Z,16.88
2018-07-14T12:39:10.882Z,16.88
2018-07-14T12:40:10.840Z,16.88
2018-07-14T12:41:10.800Z,16.88
2018-07-14T12:42:10.756Z,16.88
2018-07-14T12:43:10.722Z,16.88
2018-07-14T12:44:10.675Z,16.88
2018-07-14T12:45:10.632Z,16.88
2018-07-14T12:46:10.587Z,16.88
2018-07-14T12:47:10.545Z,16.88
2018-07-14T12:48:10.503Z,16.88
2018-07-14T12:49:10.461Z,16.88
2018-07-14T12:50:10.419Z,16.88
2018-07-14T12:51:10.379Z,16.88
2018-07-14T12:52:10.334Z,16.88
2018-07-14T12:53:10.292Z,16.88
2018-07-14T12:54:10.249Z,16.88
2018-07-14T12:55:10.207Z,16.88
2018-07-14T12:56:10.165Z,16.88
2018-07-14T12:57:10.124Z,16.88
2018-07-14T12:58:10.084Z,16.88
2018-07-14T12:59:10.039Z,16.88
2018-07-14T13:00:10.046Z,16.88
2018-07-14T13:01:09.955Z,16.88
2018-07-14T13:02:09.911Z,16.88
2018-07-14T13:03:09.870Z,16.88
2018-07-14T13:04:09.828Z,16.88
2018-07-14T13:05:09.786Z,16.88
2018-07-14T13:06:09.746Z,16.88
2018-07-14T13:07:09.701Z,16.88
2018-07-14T13:08:09.659Z,16.88
2018-07-14T13:09:09.617Z,16.88
2018-07-14T13:10:09.574Z,16.88
2018-07-14T13:11:09.532Z,16.88
2018-07-14T13:12:09.490Z,16.88